Time;durP1;ratioP1;P1;durP2;ratioP2;P2;SDS_P1;SDS_P2;PMS_P1;PMS_P2;Temp;Humidity;BMP_temperature;BMP_pressure;BME280_temperature;BME280_humidity;BME280_pressure;Samples;Min_cycle;Max_cycle;Signal;HPM_P1;HPM_P2
2021/11/24 00:02:04;;;;;;;56.08;29.17;;;5.40;99.90;;;;;;4973167;28;20195;-60
2021/11/24 00:04:33;;;;;;;64.80;28.15;;;5.40;99.90;;;;;;4978085;28;20538;-60
2021/11/24 00:07:01;;;;;;;66.10;31.00;;;5.40;99.90;;;;;;4973109;28;20223;-59
2021/11/24 00:09:29;;;;;;;57.97;31.08;;;5.40;99.90;;;;;;4972658;28;20211;-59
2021/11/24 00:11:57;;;;;;;68.88;31.55;;;5.30;99.90;;;;;;4973029;28;20199;-60
2021/11/24 00:14:27;;;;;;;61.78;30.60;;;5.40;99.90;;;;;;4972639;28;20258;-60
2021/11/24 00:16:55;;;;;;;55.65;27.58;;;5.40;99.90;;;;;;4972922;28;20231;-58
2021/11/24 00:19:23;;;;;;;46.13;26.95;;;5.40;99.90;;;;;;4972553;28;20539;-58
2021/11/24 00:21:51;;;;;;;56.65;27.58;;;5.40;99.90;;;;;;4973068;28;20199;-59
2021/11/24 00:24:21;;;;;;;44.70;25.08;;;5.40;99.90;;;;;;4972091;28;20573;-61
2021/11/24 00:26:49;;;;;;;47.58;25.00;;;5.40;99.90;;;;;;4974426;28;20226;-58
2021/11/24 00:29:17;;;;;;;52.55;26.38;;;5.40;99.90;;;;;;4975450;28;20563;-58
2021/11/24 00:31:46;;;;;;;50.63;25.30;;;5.30;99.90;;;;;;4977121;28;20191;-60
2021/11/24 00:34:14;;;;;;;51.50;24.83;;;5.30;99.90;;;;;;4976648;28;20191;-60
2021/11/24 00:36:43;;;;;;;44.05;23.83;;;5.40;99.90;;;;;;4976515;28;20223;-59
2021/11/24 00:39:11;;;;;;;47.40;24.50;;;5.40;99.90;;;;;;4974775;28;20219;-59
2021/11/24 00:41:39;;;;;;;46.20;25.08;;;5.40;99.90;;;;;;4989615;28;20214;-61
2021/11/24 00:44:07;;;;;;;50.63;24.20;;;5.40;99.90;;;;;;4983968;28;20238;-61
2021/11/24 00:46:35;;;;;;;49.92;23.52;;;5.40;99.90;;;;;;4976417;28;20714;-59
2021/11/24 00:49:09;;;;;;;55.50;26.98;;;5.30;99.90;;;;;;4976718;28;20290;-58
2021/11/24 00:51:38;;;;;;;44.72;24.45;;;5.30;99.90;;;;;;4995173;28;20226;-60
2021/11/24 00:54:06;;;;;;;53.15;25.73;;;5.20;99.90;;;;;;4995943;28;20183;-60
2021/11/24 00:56:36;;;;;;;46.45;25.60;;;5.30;99.90;;;;;;4995728;28;20232;-59
2021/11/24 00:59:04;;;;;;;54.30;24.25;;;5.30;99.90;;;;;;4995800;28;20203;-59
2021/11/24 01:01:33;;;;;;;52.35;25.15;;;5.30;99.90;;;;;;4995467;28;20222;-60
2021/11/24 01:04:01;;;;;;;51.40;25.30;;;5.30;99.90;;;;;;4996204;28;20198;-60
2021/11/24 01:06:30;;;;;;;43.13;24.95;;;5.30;99.90;;;;;;4990310;28;20223;-59
2021/11/24 01:08:58;;;;;;;49.30;24.90;;;5.30;99.90;;;;;;4979349;28;20195;-58
2021/11/24 01:11:27;;;;;;;50.22;26.27;;;5.30;99.90;;;;;;4993459;28;20222;-60
2021/11/24 01:13:55;;;;;;;58.33;26.25;;;5.30;99.90;;;;;;4995779;28;20241;-60
2021/11/24 01:16:23;;;;;;;49.38;24.15;;;5.30;99.90;;;;;;4994985;28;20676;-60
2021/11/24 01:18:51;;;;;;;48.63;23.40;;;5.30;99.90;;;;;;4995579;28;20237;-59
2021/11/24 01:21:19;;;;;;;50.47;24.50;;;5.30;99.90;;;;;;4994637;28;20305;-60
2021/11/24 01:23:49;;;;;;;48.20;26.10;;;5.30;99.90;;;;;;4995405;28;20665;-60
2021/11/24 01:26:17;;;;;;;59.25;26.05;;;5.30;99.90;;;;;;4994787;28;20222;-61
2021/11/24 01:28:45;;;;;;;54.75;26.08;;;5.20;99.90;;;;;;5008145;28;20199;-59
2021/11/24 01:31:14;;;;;;;59.53;27.77;;;5.10;99.90;;;;;;4994738;28;20230;-60
2021/11/24 01:33:42;;;;;;;51.95;24.45;;;5.20;99.90;;;;;;4995241;28;20195;-60
2021/11/24 01:36:10;;;;;;;42.80;23.98;;;5.20;99.90;;;;;;4994537;28;20779;-60
2021/11/24 01:38:38;;;;;;;49.38;25.52;;;5.20;99.90;;;;;;4995338;28;20205;-58
2021/11/24 01:41:07;;;;;;;55.60;27.60;;;5.20;99.90;;;;;;5001066;28;20754;-60
2021/11/24 01:43:35;;;;;;;48.55;24.65;;;5.20;99.90;;;;;;4998263;28;20237;-60
2021/11/24 01:46:03;;;;;;;47.60;24.05;;;5.20;99.90;;;;;;4994338;28;20501;-61
2021/11/24 01:48:32;;;;;;;52.75;26.67;;;5.20;99.90;;;;;;4994960;28;20202;-58
2021/11/24 01:51:00;;;;;;;47.85;22.95;;;5.10;99.90;;;;;;4994700;28;20260;-60
2021/11/24 01:53:29;;;;;;;51.50;26.48;;;5.10;99.90;;;;;;4994997;28;20194;-60
2021/11/24 01:56:00;;;;;;;41.70;23.73;;;5.20;99.90;;;;;;4994167;28;20705;-59
2021/11/24 01:58:29;;;;;;;52.45;26.15;;;5.20;99.90;;;;;;4994989;28;20395;-58
2021/11/24 02:00:58;;;;;;;49.53;23.77;;;5.10;99.90;;;;;;4994281;28;20277;-58
2021/11/24 02:03:27;;;;;;;61.47;28.55;;;5.10;99.90;;;;;;4994957;28;20305;-60
2021/11/24 02:05:55;;;;;;;60.58;30.00;;;5.10;99.90;;;;;;4994357;28;20762;-60
2021/11/24 02:08:23;;;;;;;54.45;25.80;;;5.00;99.90;;;;;;4993682;28;20304;-59
2021/11/24 02:10:51;;;;;;;54.20;27.42;;;5.10;99.90;;;;;;4994231;28;20273;-59
2021/11/24 02:13:19;;;;;;;65.57;27.92;;;5.00;99.90;;;;;;4994539;28;20201;-60
2021/11/24 02:15:49;;;;;;;51.80;25.10;;;5.00;99.90;;;;;;4993953;28;20726;-60
2021/11/24 02:18:17;;;;;;;61.42;30.13;;;5.00;99.90;;;;;;4994744;28;20632;-59
2021/11/24 02:20:47;;;;;;;45.10;24.35;;;5.00;99.90;;;;;;4994114;28;20245;-59
2021/11/24 02:23:16;;;;;;;50.00;25.35;;;5.10;99.90;;;;;;4994547;28;20202;-61
2021/11/24 02:25:45;;;;;;;66.82;28.23;;;5.10;99.90;;;;;;4994117;28;20230;-60
2021/11/24 02:28:15;;;;;;;55.75;26.70;;;5.10;99.90;;;;;;4994314;28;20214;-58
2021/11/24 02:30:43;;;;;;;54.08;28.27;;;5.10;99.90;;;;;;4994017;28;20280;-59
2021/11/24 02:33:11;;;;;;;82.68;31.38;;;5.10;99.90;;;;;;4994272;28;20199;-61
2021/11/24 02:35:42;;;;;;;59.03;28.40;;;5.00;99.90;;;;;;4993552;28;20280;-59
2021/11/24 02:38:14;;;;;;;75.10;30.52;;;5.00;99.90;;;;;;4994153;28;20265;-58
2021/11/24 02:40:42;;;;;;;64.65;29.13;;;5.00;99.90;;;;;;4993686;28;20223;-59
2021/11/24 02:43:11;;;;;;;62.30;28.65;;;5.00;99.90;;;;;;4994143;28;20194;-61
2021/11/24 02:45:39;;;;;;;58.58;26.90;;;5.00;99.90;;;;;;4993404;28;20284;-60
2021/11/24 02:48:07;;;;;;;53.13;27.13;;;4.90;99.90;;;;;;4994120;28;20211;-59
2021/11/24 02:50:36;;;;;;;52.38;25.55;;;4.90;99.90;;;;;;4992836;28;20627;-58
2021/11/24 02:53:04;;;;;;;50.15;24.77;;;5.00;99.90;;;;;;4994267;28;20190;-60
2021/11/24 02:55:33;;;;;;;54.80;23.92;;;5.00;99.90;;;;;;4993452;28;20226;-60
2021/11/24 02:58:01;;;;;;;46.53;24.00;;;5.00;99.90;;;;;;4993815;28;20226;-58
2021/11/24 03:00:32;;;;;;;65.05;28.70;;;4.90;99.90;;;;;;4993192;28;20222;-58
2021/11/24 03:03:00;;;;;;;47.28;25.05;;;4.90;99.90;;;;;;4993562;28;20201;-60
2021/11/24 03:05:30;;;;;;;47.80;24.20;;;4.90;99.90;;;;;;4992595;28;20276;-60
2021/11/24 03:07:59;;;;;;;41.70;23.70;;;4.90;99.90;;;;;;4993893;28;20214;-58
2021/11/24 03:10:28;;;;;;;56.47;26.88;;;5.00;99.90;;;;;;4993059;28;20637;-59
2021/11/24 03:12:59;;;;;;;50.53;23.73;;;4.90;99.90;;;;;;4993876;28;20241;-61
2021/11/24 03:15:27;;;;;;;46.45;24.60;;;4.90;99.90;;;;;;5007643;28;20635;-61
2021/11/24 03:17:55;;;;;;;67.32;27.65;;;4.90;99.90;;;;;;5012888;28;20562;-59
2021/11/24 03:20:27;;;;;;;50.58;28.10;;;4.80;99.90;;;;;;5011564;28;20226;-59
2021/11/24 03:22:58;;;;;;;54.08;28.23;;;4.80;99.90;;;;;;5013034;28;20193;-60
2021/11/24 03:25:27;;;;;;;67.63;27.40;;;4.90;99.90;;;;;;5012106;28;20715;-60
2021/11/24 03:27:56;;;;;;;51.97;25.23;;;4.80;99.90;;;;;;5001993;28;20628;-59
2021/11/24 03:30:28;;;;;;;57.08;24.33;;;4.80;99.90;;;;;;4992499;28;20230;-59
2021/11/24 03:32:58;;;;;;;54.10;25.23;;;4.90;99.90;;;;;;4993320;28;20277;-61
2021/11/24 03:35:27;;;;;;;49.42;24.17;;;4.90;99.90;;;;;;4992328;28;20242;-60
2021/11/24 03:37:55;;;;;;;61.78;28.35;;;5.00;99.90;;;;;;4992777;28;20214;-58
2021/11/24 03:40:25;;;;;;;55.33;26.65;;;4.80;99.90;;;;;;4993003;28;20229;-58
2021/11/24 03:42:53;;;;;;;63.55;29.10;;;4.80;99.90;;;;;;5001958;28;20190;-62
2021/11/24 03:45:26;;;;;;;60.40;27.75;;;4.80;99.90;;;;;;4992244;28;20223;-61
2021/11/24 03:47:54;;;;;;;53.00;25.88;;;4.80;99.90;;;;;;4996132;28;20221;-59
2021/11/24 03:50:22;;;;;;;47.78;23.88;;;4.80;99.90;;;;;;4995408;28;20214;-59
2021/11/24 03:52:51;;;;;;;49.50;23.85;;;4.90;99.90;;;;;;4992926;28;20569;-61
2021/11/24 03:55:19;;;;;;;42.25;23.85;;;5.00;99.90;;;;;;4992316;28;20257;-60
2021/11/24 03:57:48;;;;;;;59.28;25.23;;;5.00;99.90;;;;;;4992406;28;20714;-59
2021/11/24 04:00:20;;;;;;;46.90;23.42;;;4.90;99.90;;;;;;4992189;28;20264;-58
2021/11/24 04:02:50;;;;;;;43.38;22.95;;;4.90;99.90;;;;;;4998201;28;20189;-61
2021/11/24 04:05:19;;;;;;;42.63;22.30;;;4.90;99.90;;;;;;5023252;28;20626;-60
2021/11/24 04:07:47;;;;;;;48.53;23.48;;;5.00;99.90;;;;;;5006113;28;20213;-59
2021/11/24 04:10:16;;;;;;;44.80;22.95;;;5.00;99.90;;;;;;4992152;28;20296;-58
2021/11/24 04:12:45;;;;;;;41.80;21.65;;;5.00;99.90;;;;;;4992665;28;20206;-61
2021/11/24 04:15:15;;;;;;;48.75;26.10;;;5.10;99.90;;;;;;4992095;28;20226;-60
2021/11/24 04:17:44;;;;;;;52.80;25.92;;;5.10;99.90;;;;;;4992401;28;20680;-60
2021/11/24 04:20:15;;;;;;;48.30;26.10;;;5.10;99.90;;;;;;4992000;28;20230;-59
2021/11/24 04:22:44;;;;;;;54.80;26.77;;;5.10;99.90;;;;;;4992361;28;20190;-60
2021/11/24 04:25:13;;;;;;;42.17;22.63;;;5.10;99.90;;;;;;4991804;28;20729;-60
2021/11/24 04:27:42;;;;;;;51.88;22.80;;;5.10;99.90;;;;;;4992902;28;20210;-60
2021/11/24 04:30:11;;;;;;;47.25;26.00;;;5.10;99.90;;;;;;4992039;28;20226;-59
2021/11/24 04:32:39;;;;;;;46.65;24.80;;;5.10;99.90;;;;;;4992187;28;20202;-60
2021/11/24 04:35:08;;;;;;;52.90;25.23;;;5.10;99.90;;;;;;4991588;28;20222;-61
2021/11/24 04:37:38;;;;;;;45.30;23.63;;;5.10;99.90;;;;;;4992302;28;20293;-62
2021/11/24 04:40:08;;;;;;;42.08;23.10;;;5.10;99.90;;;;;;4991965;28;20222;-58
2021/11/24 04:42:38;;;;;;;53.20;24.73;;;5.00;99.90;;;;;;5002834;28;20472;-61
2021/11/24 04:45:06;;;;;;;45.25;24.38;;;5.00;99.90;;;;;;4991526;28;20222;-60
2021/11/24 04:47:34;;;;;;;43.97;22.75;;;5.00;99.90;;;;;;4991824;28;20218;-61
2021/11/24 04:50:02;;;;;;;51.25;25.83;;;4.90;99.90;;;;;;4996725;28;20291;-59
2021/11/24 04:52:30;;;;;;;70.93;27.30;;;5.00;99.90;;;;;;5011562;28;20241;-60
2021/11/24 04:55:00;;;;;;;57.10;28.85;;;4.90;99.90;;;;;;5011198;28;20304;-60
2021/11/24 04:57:28;;;;;;;57.25;26.27;;;4.90;99.90;;;;;;5004252;28;20225;-60
2021/11/24 04:59:56;;;;;;;57.17;27.15;;;4.90;99.90;;;;;;4991531;28;20594;-59
2021/11/24 05:02:24;;;;;;;58.85;29.58;;;4.90;99.90;;;;;;4992264;28;20187;-59
2021/11/24 05:04:53;;;;;;;45.15;25.40;;;4.90;99.90;;;;;;4991474;28;20230;-60
2021/11/24 05:07:21;;;;;;;54.65;28.30;;;5.00;99.90;;;;;;4991785;28;20218;-60
2021/11/24 05:10:02;;;;;;;47.83;26.83;;;5.00;99.90;;;;;;5004937;28;20252;-59
2021/11/24 05:12:30;;;;;;;47.85;24.35;;;5.00;99.90;;;;;;5004751;28;20561;-60
2021/11/24 05:15:00;;;;;;;54.13;26.42;;;5.00;99.90;;;;;;4995228;28;20285;-61
2021/11/24 05:17:30;;;;;;;50.90;26.23;;;5.00;99.90;;;;;;4995780;28;20222;-61
2021/11/24 05:19:59;;;;;;;54.90;26.30;;;5.10;99.90;;;;;;4995845;28;20704;-58
2021/11/24 05:22:27;;;;;;;45.03;23.02;;;5.10;99.90;;;;;;4999265;28;20195;-58
2021/11/24 05:24:55;;;;;;;53.22;26.00;;;5.10;99.90;;;;;;4995218;28;20600;-60
2021/11/24 05:27:24;;;;;;;57.10;27.40;;;5.00;99.90;;;;;;4995314;28;20704;-60
2021/11/24 05:29:53;;;;;;;45.42;25.08;;;5.00;99.90;;;;;;4994968;28;20252;-58
2021/11/24 05:32:22;;;;;;;49.83;23.52;;;5.00;99.90;;;;;;4995709;28;20257;-59
2021/11/24 05:34:50;;;;;;;54.63;22.65;;;5.00;99.90;;;;;;4994665;28;20226;-61
2021/11/24 05:37:18;;;;;;;48.38;22.92;;;5.00;99.90;;;;;;4995274;28;20345;-61
2021/11/24 05:39:46;;;;;;;47.03;24.45;;;5.00;99.90;;;;;;4994584;28;20696;-58
2021/11/24 05:42:14;;;;;;;51.50;23.40;;;5.00;99.90;;;;;;5005937;28;20676;-58
2021/11/24 05:44:47;;;;;;;48.83;24.45;;;5.00;99.90;;;;;;4994489;28;20272;-59
2021/11/24 05:47:50;;;;;;;47.00;24.55;;;5.00;99.90;;;;;;4995425;28;20269;-60
2021/11/24 05:50:31;;;;;;;41.10;22.23;;;5.00;99.90;;;;;;4994898;28;20652;-58
2021/11/24 05:52:59;;;;;;;40.05;23.25;;;5.00;99.90;;;;;;4995168;28;20225;-61
2021/11/24 05:55:27;;;;;;;41.90;22.52;;;5.10;99.90;;;;;;4994465;28;20230;-59
2021/11/24 05:57:55;;;;;;;48.95;23.95;;;5.10;99.90;;;;;;4994920;28;20238;-60
2021/11/24 06:00:25;;;;;;;52.20;24.13;;;5.10;99.90;;;;;;4994421;28;20696;-58
2021/11/24 06:02:53;;;;;;;41.75;21.20;;;5.10;99.90;;;;;;4995045;28;20190;-59
2021/11/24 06:05:21;;;;;;;42.60;24.00;;;5.10;99.90;;;;;;4994186;28;20222;-61
2021/11/24 06:07:49;;;;;;;51.25;24.05;;;5.10;99.90;;;;;;4995017;28;20218;-59
2021/11/24 06:10:17;;;;;;;46.10;24.63;;;5.00;99.90;;;;;;4994157;28;20230;-59
2021/11/24 06:12:46;;;;;;;46.65;21.73;;;5.00;99.90;;;;;;5003280;28;20607;-59
2021/11/24 06:15:16;;;;;;;47.83;22.33;;;5.00;99.90;;;;;;5013503;28;20221;-60
2021/11/24 06:17:47;;;;;;;47.78;22.38;;;5.00;99.90;;;;;;5014180;28;20210;-59
2021/11/24 06:20:18;;;;;;;48.08;23.00;;;5.10;99.90;;;;;;5006067;28;20222;-58
2021/11/24 06:22:47;;;;;;;44.90;21.83;;;5.10;99.90;;;;;;4994518;28;20191;-58
2021/11/24 06:25:15;;;;;;;45.58;21.65;;;5.00;99.90;;;;;;4992772;28;20273;-59
2021/11/24 06:27:44;;;;;;;36.75;21.55;;;5.10;99.90;;;;;;4994134;28;20219;-60
2021/11/24 06:30:15;;;;;;;38.35;21.85;;;5.10;99.90;;;;;;4993749;28;20214;-58
2021/11/24 06:32:46;;;;;;;57.72;22.65;;;5.10;99.90;;;;;;4994250;28;20206;-59
2021/11/24 06:35:15;;;;;;;45.03;23.02;;;5.00;99.90;;;;;;4993424;28;20750;-60
2021/11/24 06:37:43;;;;;;;53.35;23.60;;;5.00;99.90;;;;;;4994046;28;20741;-61
2021/11/24 06:40:13;;;;;;;40.20;22.92;;;5.10;99.90;;;;;;4993538;28;20258;-59
2021/11/24 06:42:41;;;;;;;46.03;24.10;;;5.00;99.90;;;;;;5004494;28;20237;-59
2021/11/24 06:45:10;;;;;;;47.45;23.05;;;5.00;99.90;;;;;;4993326;28;20229;-60
2021/11/24 06:47:39;;;;;;;43.00;21.25;;;4.90;99.90;;;;;;4993940;28;20284;-60
2021/11/24 06:50:10;;;;;;;41.15;23.50;;;5.00;99.90;;;;;;4993720;28;20229;-59
2021/11/24 06:52:39;;;;;;;51.15;22.45;;;5.00;99.90;;;;;;4993839;28;20220;-59
2021/11/24 06:55:09;;;;;;;45.35;24.08;;;5.00;99.90;;;;;;5013307;28;20218;-60
2021/11/24 06:57:37;;;;;;;53.90;28.67;;;5.00;99.90;;;;;;4994946;28;20700;-60
2021/11/24 07:00:07;;;;;;;56.25;25.48;;;4.90;99.90;;;;;;4993239;28;20226;-58
2021/11/24 07:02:35;;;;;;;45.85;23.33;;;4.90;99.90;;;;;;5004737;28;20197;-58
2021/11/24 07:05:05;;;;;;;51.28;26.38;;;5.00;99.90;;;;;;5012471;28;20577;-59
2021/11/24 07:07:34;;;;;;;53.10;24.73;;;5.00;99.90;;;;;;4999378;28;20226;-59
2021/11/24 07:10:04;;;;;;;61.20;26.40;;;5.00;99.90;;;;;;4993137;28;20268;-59
2021/11/24 07:12:32;;;;;;;53.38;25.63;;;5.10;99.90;;;;;;4993382;28;20197;-58
2021/11/24 07:15:00;;;;;;;43.05;23.10;;;5.10;99.90;;;;;;4991461;28;20636;-59
2021/11/24 07:17:29;;;;;;;54.22;23.95;;;5.10;99.90;;;;;;4993332;28;20684;-60
2021/11/24 07:19:57;;;;;;;54.05;24.40;;;5.10;99.90;;;;;;4992980;28;20277;-58
2021/11/24 07:22:25;;;;;;;44.05;22.20;;;5.10;99.90;;;;;;4993635;28;20577;-58
2021/11/24 07:25:00;;;;;;;43.72;22.35;;;5.10;99.90;;;;;;4992531;28;20226;-60
2021/11/24 07:27:28;;;;;;;45.75;24.33;;;5.20;99.90;;;;;;4993419;28;20640;-60
2021/11/24 07:29:56;;;;;;;51.90;23.83;;;5.10;99.90;;;;;;4992552;28;20264;-58
2021/11/24 07:32:24;;;;;;;54.53;25.95;;;5.10;99.90;;;;;;4993358;28;20199;-58
2021/11/24 07:34:52;;;;;;;50.08;24.80;;;5.20;99.90;;;;;;4992573;28;20284;-60
2021/11/24 07:37:25;;;;;;;48.00;23.17;;;5.10;99.90;;;;;;4993079;28;20218;-60
2021/11/24 07:39:53;;;;;;;54.03;23.70;;;5.20;99.90;;;;;;4992667;28;20229;-59
2021/11/24 07:42:23;;;;;;;63.50;25.38;;;5.20;99.90;;;;;;5003702;28;20195;-58
2021/11/24 07:44:51;;;;;;;62.92;30.90;;;5.20;99.90;;;;;;4991139;28;20223;-59
2021/11/24 07:47:19;;;;;;;56.55;25.10;;;5.20;99.90;;;;;;4993161;28;20287;-60
2021/11/24 07:49:48;;;;;;;53.70;25.90;;;5.30;99.90;;;;;;4992668;28;20221;-58
2021/11/24 07:52:16;;;;;;;78.95;35.42;;;5.30;99.90;;;;;;4992942;28;20194;-58
2021/11/24 07:54:44;;;;;;;65.90;29.65;;;5.30;99.90;;;;;;4991925;28;20246;-60
2021/11/24 07:57:13;;;;;;;56.58;29.17;;;5.30;99.90;;;;;;4992433;28;20210;-60
2021/11/24 07:59:42;;;;;;;63.10;30.27;;;5.30;99.90;;;;;;4991115;28;20222;-59
2021/11/24 08:02:11;;;;;;;68.65;27.65;;;5.20;99.90;;;;;;4992696;28;20649;-58
2021/11/24 08:04:40;;;;;;;56.40;26.35;;;5.20;99.90;;;;;;4991931;28;20252;-59
2021/11/24 08:07:08;;;;;;;54.05;26.52;;;5.20;99.90;;;;;;5004479;28;20222;-60
2021/11/24 08:09:36;;;;;;;42.15;24.35;;;5.20;99.90;;;;;;5003345;28;20206;-57
2021/11/24 08:12:05;;;;;;;56.65;26.92;;;5.20;99.90;;;;;;4992690;28;20653;-59
2021/11/24 08:14:35;;;;;;;57.90;27.30;;;5.20;99.90;;;;;;5003565;28;20229;-60
2021/11/24 08:17:04;;;;;;;71.30;26.63;;;5.20;99.90;;;;;;5012226;28;20611;-61
2021/11/24 08:19:32;;;;;;;55.78;26.40;;;5.20;99.90;;;;;;5011731;28;20186;-60
2021/11/24 08:22:00;;;;;;;56.75;26.35;;;5.30;99.90;;;;;;4995153;28;20201;-59
2021/11/24 08:24:29;;;;;;;51.00;26.88;;;5.30;99.90;;;;;;4991311;28;20691;-60
2021/11/24 08:26:57;;;;;;;51.47;26.10;;;5.30;99.90;;;;;;5008243;28;20707;-61
2021/11/24 08:29:25;;;;;;;52.50;25.42;;;5.30;99.90;;;;;;4996006;28;20233;-59
2021/11/24 08:31:53;;;;;;;46.92;23.50;;;5.40;99.90;;;;;;4996182;28;20186;-58
2021/11/24 08:34:23;;;;;;;49.67;24.88;;;5.50;99.90;;;;;;5000548;28;20198;-58
2021/11/24 08:36:52;;;;;;;48.75;23.45;;;5.50;99.90;;;;;;4992475;28;20246;-60
2021/11/24 08:39:21;;;;;;;52.80;25.50;;;5.50;99.90;;;;;;5008446;28;20194;-60
2021/11/24 08:41:49;;;;;;;44.85;22.20;;;5.40;99.90;;;;;;5009376;28;20571;-58
2021/11/24 08:44:17;;;;;;;49.20;24.20;;;5.50;99.90;;;;;;4992565;28;20206;-58
2021/11/24 08:46:46;;;;;;;38.53;22.15;;;5.60;99.90;;;;;;4991868;28;20731;-59
2021/11/24 08:49:14;;;;;;;41.30;23.48;;;5.60;99.90;;;;;;4995694;28;20194;-60
2021/11/24 08:51:43;;;;;;;38.05;22.15;;;5.60;99.90;;;;;;5012460;28;20835;-59
2021/11/24 08:54:13;;;;;;;42.15;22.15;;;5.60;99.90;;;;;;4995746;28;20230;-59
2021/11/24 08:56:42;;;;;;;49.53;24.33;;;5.60;99.90;;;;;;4995348;28;20222;-60
2021/11/24 08:59:11;;;;;;;38.75;23.17;;;5.60;99.90;;;;;;5015382;28;20652;-60
2021/11/24 09:01:40;;;;;;;38.30;24.40;;;5.70;99.90;;;;;;5011791;28;20217;-58
2021/11/24 09:04:08;;;;;;;44.38;26.33;;;5.70;99.90;;;;;;5015439;28;20182;-59
2021/11/24 09:06:36;;;;;;;62.90;27.20;;;5.80;99.90;;;;;;5011292;28;20249;-59
2021/11/24 09:09:07;;;;;;;44.85;25.50;;;5.80;99.90;;;;;;4995890;28;20220;-60
2021/11/24 09:11:36;;;;;;;40.88;25.30;;;5.90;99.90;;;;;;4995264;28;20280;-59
2021/11/24 09:14:04;;;;;;;41.38;23.48;;;6.00;99.90;;;;;;4995425;28;20222;-59
2021/11/24 09:16:32;;;;;;;38.10;22.50;;;6.00;99.90;;;;;;5001408;28;20232;-59
2021/11/24 09:19:01;;;;;;;42.70;22.85;;;6.00;99.90;;;;;;5015158;28;20190;-59
2021/11/24 09:21:29;;;;;;;42.10;24.92;;;6.00;99.90;;;;;;5012546;28;20600;-60
2021/11/24 09:24:03;;;;;;;42.45;24.30;;;6.10;99.90;;;;;;5014883;28;20241;-60
2021/11/24 09:26:41;;;;;;;49.92;26.20;;;6.10;99.90;;;;;;5014444;28;20226;-61
2021/11/24 09:29:10;;;;;;;46.20;25.50;;;6.20;99.90;;;;;;5014339;28;20194;-60
2021/11/24 09:31:39;;;;;;;49.50;25.40;;;6.20;99.90;;;;;;5014274;28;20587;-59
2021/11/24 09:34:08;;;;;;;44.08;24.02;;;6.20;99.90;;;;;;5014664;28;20241;-59
2021/11/24 09:36:37;;;;;;;46.13;25.75;;;6.20;99.90;;;;;;5006325;28;20229;-59
2021/11/24 09:39:05;;;;;;;42.75;25.13;;;6.20;99.90;;;;;;4995107;28;20195;-60
2021/11/24 09:41:41;;;;;;;53.20;24.83;;;6.20;99.90;;;;;;4981355;28;20223;-58
2021/11/24 09:44:10;;;;;;;40.65;23.45;;;6.20;99.90;;;;;;4975387;28;20199;-59
2021/11/24 09:46:43;;;;;;;43.67;25.30;;;6.20;99.90;;;;;;4975308;28;20281;-61
2021/11/24 09:49:13;;;;;;;40.83;23.00;;;6.30;99.90;;;;;;4976007;28;20207;-60
2021/11/24 09:51:42;;;;;;;34.80;22.45;;;6.50;99.90;;;;;;4974939;28;20269;-58
2021/11/24 09:54:11;;;;;;;41.75;24.55;;;6.50;99.90;;;;;;4975266;28;20219;-58
2021/11/24 09:56:42;;;;;;;38.80;23.80;;;6.50;99.90;;;;;;4980266;28;20239;-61
2021/11/24 09:59:17;;;;;;;44.42;25.10;;;6.60;99.90;;;;;;4986703;28;20241;-60
2021/11/24 10:01:46;;;;;;;32.92;21.02;;;6.50;99.90;;;;;;4995291;28;20211;-59
2021/11/24 10:04:14;;;;;;;35.40;23.85;;;6.50;99.90;;;;;;4994411;28;20555;-58
2021/11/24 10:06:42;;;;;;;35.70;22.23;;;6.60;99.90;;;;;;4987980;28;20229;-59
2021/11/24 10:09:12;;;;;;;33.00;19.33;;;6.60;99.90;;;;;;4994652;28;20257;-61
2021/11/24 10:11:41;;;;;;;30.75;20.67;;;6.70;99.90;;;;;;4993525;28;20218;-59
2021/11/24 10:14:10;;;;;;;32.22;20.17;;;6.60;99.90;;;;;;4974069;28;20209;-58
2021/11/24 10:16:38;;;;;;;36.47;20.95;;;6.70;99.90;;;;;;4974583;28;20234;-59
2021/11/24 10:19:09;;;;;;;31.25;20.52;;;6.70;99.90;;;;;;4982991;28;20205;-60
2021/11/24 10:21:54;;;;;;;28.40;19.70;;;6.80;99.90;;;;;;4985005;28;20231;-58
2021/11/24 10:24:28;;;;;;;24.77;19.00;;;6.90;99.90;;;;;;4983735;28;20196;-58
2021/11/24 10:26:59;;;;;;;26.00;18.73;;;7.00;99.90;;;;;;4987966;28;20237;-60
2021/11/24 10:29:36;;;;;;;23.77;19.00;;;7.10;99.90;;;;;;4994933;28;20194;-60
2021/11/24 10:32:07;;;;;;;24.75;17.75;;;7.10;99.90;;;;;;4994117;28;20547;-58
2021/11/24 10:34:38;;;;;;;25.10;17.17;;;7.20;99.90;;;;;;4993667;28;20658;-59
2021/11/24 10:37:09;;;;;;;24.67;16.75;;;7.10;99.90;;;;;;4980968;28;20262;-60
2021/11/24 10:39:41;;;;;;;23.92;16.75;;;7.20;99.90;;;;;;4992156;28;20362;-59
2021/11/24 10:42:13;;;;;;;22.38;16.50;;;7.30;99.90;;;;;;4988781;28;20256;-59
2021/11/24 10:44:44;;;;;;;21.77;16.98;;;7.20;99.90;;;;;;4974122;28;20615;-58
2021/11/24 10:47:13;;;;;;;25.85;17.05;;;7.30;99.90;;;;;;4990841;28;20261;-61
2021/11/24 10:49:45;;;;;;;26.77;17.92;;;7.30;99.90;;;;;;4973759;28;20222;-59
2021/11/24 10:52:17;;;;;;;26.20;16.90;;;7.30;99.90;;;;;;4974511;28;20246;-58
2021/11/24 10:54:58;;;;;;;24.80;17.42;;;7.30;99.90;;;;;;4996264;28;20228;-58
2021/11/24 10:57:28;;;;;;;24.58;16.30;;;7.40;99.90;;;;;;5006582;28;20267;-59
2021/11/24 11:00:03;;;;;;;22.33;15.65;;;7.30;99.90;;;;;;4994483;28;20670;-60
2021/11/24 11:02:34;;;;;;;22.35;15.80;;;7.20;99.90;;;;;;5012455;28;20299;-58
2021/11/24 11:05:12;;;;;;;20.80;14.57;;;7.20;99.90;;;;;;5012263;28;20213;-58
2021/11/24 11:07:57;;;;;;;19.48;13.82;;;7.20;99.90;;;;;;5011892;28;20297;-61
2021/11/24 11:10:28;;;;;;;17.83;14.40;;;7.40;99.90;;;;;;5000470;28;20758;-58
2021/11/24 11:13:00;;;;;;;20.77;14.27;;;7.60;99.90;;;;;;4981759;28;20193;-58
2021/11/24 11:15:35;;;;;;;21.83;15.15;;;7.60;99.90;;;;;;4988356;28;20224;-58
2021/11/24 11:18:15;;;;;;;22.80;15.00;;;7.70;99.90;;;;;;4974252;28;20566;-61
2021/11/24 11:20:49;;;;;;;20.23;14.20;;;7.70;99.90;;;;;;4973608;28;20549;-61
2021/11/24 11:23:20;;;;;;;18.17;11.68;;;7.80;99.90;;;;;;4974160;28;20196;-58
2021/11/24 11:25:53;;;;;;;14.65;11.32;;;7.70;99.90;;;;;;4973361;28;20218;-58
2021/11/24 11:28:25;;;;;;;14.98;10.88;;;7.70;99.90;;;;;;4973297;28;20225;-59
2021/11/24 11:30:56;;;;;;;14.50;9.15;;;7.70;99.90;;;;;;4978657;28;20217;-61
2021/11/24 11:33:27;;;;;;;15.98;10.05;;;7.70;99.90;;;;;;4993272;28;20596;-58
2021/11/24 11:35:56;;;;;;;12.52;8.45;;;7.80;99.90;;;;;;4992890;28;20231;-58
2021/11/24 11:38:24;;;;;;;10.25;7.47;;;7.60;99.90;;;;;;4974996;28;20208;-60
2021/11/24 11:40:54;;;;;;;10.68;6.15;;;7.60;99.90;;;;;;4973882;28;20579;-60
2021/11/24 11:43:48;;;;;;;9.57;7.20;;;7.60;99.90;;;;;;4984022;28;20203;-58
2021/11/24 11:46:44;;;;;;;10.30;8.18;;;7.50;99.90;;;;;;4988880;28;20215;-59
2021/11/24 11:49:15;;;;;;;8.15;5.57;;;7.50;99.90;;;;;;4993217;28;20188;-60
2021/11/24 11:51:47;;;;;;;7.55;4.43;;;7.40;99.90;;;;;;4990501;28;20283;-58
2021/11/24 11:54:24;;;;;;;3.80;3.40;;;7.40;99.90;;;;;;4992653;28;20198;-58
2021/11/24 11:56:53;;;;;;;5.70;3.72;;;7.40;99.90;;;;;;4990289;28;20234;-60
2021/11/24 11:59:23;;;;;;;5.70;4.00;;;7.50;99.90;;;;;;4973366;28;20308;-60
2021/11/24 12:02:00;;;;;;;4.10;3.50;;;7.50;99.90;;;;;;4981679;28;20269;-58
2021/11/24 12:04:31;;;;;;;4.50;3.10;;;7.40;99.90;;;;;;4991478;28;20199;-58
2021/11/24 12:07:05;;;;;;;3.60;3.20;;;7.40;99.90;;;;;;4986996;28;20238;-59
2021/11/24 12:09:38;;;;;;;3.90;2.70;;;7.40;99.90;;;;;;4972779;28;20223;-60
2021/11/24 12:12:13;;;;;;;2.70;2.15;;;7.40;99.90;;;;;;4973445;28;20824;-59
2021/11/24 12:15:02;;;;;;;2.55;1.58;;;7.40;99.90;;;;;;4975658;28;20287;-59
2021/11/24 12:17:53;;;;;;;2.45;1.70;;;7.50;99.90;;;;;;4992553;28;20207;-60
2021/11/24 12:20:45;;;;;;;2.13;1.67;;;7.70;99.90;;;;;;4991968;28;20633;-60
2021/11/24 12:23:32;;;;;;;2.63;1.55;;;7.80;99.90;;;;;;4991691;28;20578;-58
2021/11/24 12:26:03;;;;;;;2.78;2.10;;;7.90;99.00;;;;;;4991834;28;20712;-58
2021/11/24 12:28:38;;;;;;;4.95;2.40;;;7.90;95.40;;;;;;4993181;28;20716;-59
2021/11/24 12:31:18;;;;;;;5.75;2.70;;;7.90;96.30;;;;;;5004496;28;20308;-60
2021/11/24 12:33:55;;;;;;;5.18;2.70;;;7.90;95.20;;;;;;4992298;28;20190;-59
2021/11/24 12:36:29;;;;;;;2.65;2.28;;;7.80;93.80;;;;;;5006667;28;20749;-58
2021/11/24 12:39:05;;;;;;;5.40;3.28;;;7.80;94.90;;;;;;5003836;28;20236;-59
2021/11/24 12:41:37;;;;;;;3.60;2.10;;;7.70;95.40;;;;;;4992486;28;20224;-60
2021/11/24 12:44:09;;;;;;;3.72;2.65;;;7.60;94.70;;;;;;5005067;28;20219;-58
2021/11/24 12:46:40;;;;;;;3.55;2.20;;;7.60;96.00;;;;;;4999202;28;20221;-56
2021/11/24 12:49:11;;;;;;;2.50;2.30;;;7.60;95.90;;;;;;4992508;28;20555;-58
2021/11/24 12:51:46;;;;;;;3.70;2.05;;;7.60;97.50;;;;;;4991569;28;20637;-59
2021/11/24 12:54:16;;;;;;;2.80;2.50;;;7.60;98.20;;;;;;4991996;28;20201;-57